Time;durP1;ratioP1;P1;durP2;ratioP2;P2;SDS_P1;SDS_P2;PMS_P1;PMS_P2;Temp;Humidity;BMP_temperature;BMP_pressure;BME280_temperature;BME280_humidity;BME280_pressure;Samples;Min_cycle;Max_cycle;Signal;HPM_P1;HPM_P2
2021/04/08 00:00:17;;;;;;;7.10;3.85;;;2.10;99.90;;;;;;5069889;28;20391;-64
2021/04/08 00:02:44;;;;;;;7.15;3.55;;;2.10;99.90;;;;;;5068880;28;20449;-67
2021/04/08 00:05:11;;;;;;;7.03;4.00;;;2.20;99.90;;;;;;5067509;28;20415;-67
2021/04/08 00:07:37;;;;;;;8.20;3.90;;;2.20;99.90;;;;;;5067639;28;20858;-57
2021/04/08 00:10:04;;;;;;;9.50;4.40;;;2.10;99.90;;;;;;5068059;28;20394;-64
2021/04/08 00:12:30;;;;;;;7.53;4.03;;;2.10;99.90;;;;;;5067707;28;20388;-64
2021/04/08 00:14:56;;;;;;;8.17;3.73;;;2.00;99.90;;;;;;5067891;28;20395;-64
2021/04/08 00:17:21;;;;;;;8.20;3.75;;;2.00;99.90;;;;;;5068040;28;20402;-64
2021/04/08 00:19:47;;;;;;;10.33;4.70;;;2.10;99.90;;;;;;5068537;28;20733;-66
2021/04/08 00:22:12;;;;;;;9.30;4.23;;;2.20;99.90;;;;;;5069606;28;20915;-68
2021/04/08 00:24:38;;;;;;;8.45;4.20;;;2.10;99.90;;;;;;5066832;28;20864;-60
2021/04/08 00:27:04;;;;;;;8.63;4.28;;;2.10;99.90;;;;;;5068460;28;20448;-67
2021/04/08 00:29:30;;;;;;;8.97;4.70;;;2.10;99.90;;;;;;5069144;28;20461;-67
2021/04/08 00:31:55;;;;;;;9.07;4.10;;;2.40;99.90;;;;;;5066417;28;20455;-67
2021/04/08 00:34:21;;;;;;;10.45;4.70;;;2.20;99.90;;;;;;5069652;28;20864;-67
2021/04/08 00:36:46;;;;;;;9.47;4.83;;;2.20;99.90;;;;;;5049025;28;20511;-66
2021/04/08 00:39:12;;;;;;;9.17;4.80;;;3.80;99.90;;;;;;5068864;28;20391;-67
2021/04/08 00:41:39;;;;;;;9.98;4.88;;;2.00;99.90;;;;;;5068350;28;20434;-60
2021/04/08 00:44:05;;;;;;;9.00;4.70;;;2.00;99.90;;;;;;5067844;28;20400;-67
2021/04/08 00:46:31;;;;;;;10.43;5.70;;;2.00;99.90;;;;;;5067866;28;20392;-67
2021/04/08 00:48:56;;;;;;;12.30;5.60;;;3.30;99.90;;;;;;5069129;28;20833;-66
2021/04/08 00:51:22;;;;;;;8.00;5.20;;;3.20;99.90;;;;;;5069507;28;20404;-67
2021/04/08 00:53:49;;;;;;;8.60;5.20;;;3.90;99.90;;;;;;5049017;28;20850;-66
2021/04/08 00:56:15;;;;;;;9.43;5.20;;;2.10;99.90;;;;;;5069076;28;20391;-67
2021/04/08 00:58:42;;;;;;;9.73;5.50;;;2.10;99.90;;;;;;5068833;28;20422;-60
2021/04/08 01:01:08;;;;;;;11.38;5.85;;;2.10;99.90;;;;;;5067508;28;20411;-67
2021/04/08 01:03:34;;;;;;;9.88;5.20;;;2.00;99.90;;;;;;5069190;28;20384;-67
2021/04/08 01:06:00;;;;;;;9.30;5.40;;;2.00;99.90;;;;;;5066199;28;20838;-67
2021/04/08 01:08:25;;;;;;;11.35;5.93;;;2.10;99.90;;;;;;5069188;28;20829;-67
2021/04/08 01:10:51;;;;;;;11.30;5.53;;;2.20;99.90;;;;;;5066954;28;20402;-66
2021/04/08 01:13:20;;;;;;;9.07;5.00;;;2.30;99.90;;;;;;5050993;28;20376;-67
2021/04/08 01:15:46;;;;;;;11.65;5.97;;;2.30;99.90;;;;;;5066901;28;20399;-67
2021/04/08 01:18:33;;;;;;;13.13;5.63;;;2.40;99.90;;;;;;5069158;28;20375;-67
2021/04/08 01:21:06;;;;;;;10.90;7.00;;;2.60;99.90;;;;;;5067221;28;21051;-67
2021/04/08 01:24:06;;;;;;;11.65;6.80;;;2.80;99.90;;;;;;5070009;28;20435;-67
2021/04/08 01:27:03;;;;;;;10.70;6.20;;;2.90;99.90;;;;;;5070618;28;20412;-67
2021/04/08 01:29:48;;;;;;;8.70;5.40;;;3.30;99.90;;;;;;5072983;28;20857;-67
2021/04/08 01:32:16;;;;;;;12.05;5.00;;;3.20;99.90;;;;;;5070708;28;20399;-67
2021/04/08 01:34:45;;;;;;;8.57;5.20;;;3.20;99.90;;;;;;5072390;28;20379;-60
2021/04/08 01:37:13;;;;;;;9.15;4.00;;;3.30;99.90;;;;;;5053337;28;20846;-67
2021/04/08 01:39:43;;;;;;;8.57;3.97;;;3.20;99.90;;;;;;5072620;28;20837;-61
2021/04/08 01:42:10;;;;;;;7.13;4.03;;;3.80;99.90;;;;;;5070295;28;20458;-67
2021/04/08 01:44:36;;;;;;;9.20;4.40;;;3.20;99.90;;;;;;5072031;28;20395;-67
2021/04/08 01:47:06;;;;;;;7.47;4.40;;;3.30;99.90;;;;;;5069441;28;20944;-67
2021/04/08 01:49:34;;;;;;;9.73;4.60;;;3.40;99.90;;;;;;5072450;28;20872;-67
2021/04/08 01:52:01;;;;;;;9.75;4.30;;;3.40;99.90;;;;;;5070124;28;20460;-67
2021/04/08 01:54:31;;;;;;;7.70;4.20;;;3.40;99.90;;;;;;5071265;28;20408;-67
2021/04/08 01:57:04;;;;;;;8.57;4.27;;;3.40;99.90;;;;;;5070070;28;20512;-67
2021/04/08 01:59:31;;;;;;;8.35;4.47;;;3.40;99.90;;;;;;5071202;28;20881;-66
2021/04/08 02:01:57;;;;;;;9.93;4.50;;;4.20;99.90;;;;;;5069352;28;20442;-67
2021/04/08 02:04:28;;;;;;;7.35;4.30;;;3.40;99.90;;;;;;5069967;28;20392;-66
2021/04/08 02:06:55;;;;;;;9.63;4.07;;;3.50;99.90;;;;;;5070700;28;20409;-63
2021/04/08 02:09:22;;;;;;;8.57;4.22;;;3.50;99.90;;;;;;5070697;28;20413;-67
2021/04/08 02:11:48;;;;;;;9.55;4.40;;;3.50;99.90;;;;;;5071214;28;20403;-67
2021/04/08 02:14:15;;;;;;;12.60;4.70;;;3.30;99.90;;;;;;5072189;28;20379;-66
2021/04/08 02:16:49;;;;;;;10.00;4.20;;;3.30;99.90;;;;;;5069829;28;20387;-60
2021/04/08 02:19:18;;;;;;;9.02;3.85;;;3.40;99.90;;;;;;5070605;28;20799;-68
2021/04/08 02:21:46;;;;;;;6.90;3.60;;;3.40;99.90;;;;;;5069025;28;20734;-60
2021/04/08 02:24:14;;;;;;;11.05;4.10;;;3.30;99.90;;;;;;5071729;28;20898;-67
2021/04/08 02:26:41;;;;;;;8.50;3.90;;;3.40;99.90;;;;;;5069307;28;20453;-61
2021/04/08 02:29:09;;;;;;;9.18;3.78;;;3.40;99.90;;;;;;5071138;28;20383;-66
2021/04/08 02:31:38;;;;;;;7.55;3.90;;;3.40;99.90;;;;;;5070540;28;20380;-61
2021/04/08 02:34:05;;;;;;;9.53;4.37;;;3.40;99.90;;;;;;5068572;28;20399;-67
2021/04/08 02:36:31;;;;;;;7.85;3.80;;;3.50;99.90;;;;;;5070064;28;20865;-66
2021/04/08 02:38:57;;;;;;;7.47;3.63;;;3.40;99.90;;;;;;5070420;28;20382;-67
2021/04/08 02:41:23;;;;;;;6.90;3.60;;;3.50;99.90;;;;;;5051710;28;20411;-66
2021/04/08 02:43:49;;;;;;;9.40;3.65;;;3.40;99.90;;;;;;5070428;28;20717;-66
2021/04/08 02:46:14;;;;;;;5.97;3.40;;;3.40;99.90;;;;;;5069832;28;20392;-66
2021/04/08 02:48:40;;;;;;;9.57;3.80;;;3.50;99.90;;;;;;5071401;28;20376;-67
2021/04/08 02:51:10;;;;;;;6.50;3.50;;;3.60;99.90;;;;;;5070736;28;20386;-67
2021/04/08 02:54:06;;;;;;;6.85;3.22;;;3.70;99.90;;;;;;5069860;28;20876;-66
2021/04/08 02:56:45;;;;;;;7.80;3.90;;;3.70;99.90;;;;;;5071253;28;20387;-66
2021/04/08 02:59:17;;;;;;;7.40;3.65;;;3.60;99.90;;;;;;5070505;28;20412;-66
2021/04/08 03:02:10;;;;;;;8.50;4.10;;;4.90;99.90;;;;;;5069659;28;20464;-61
2021/04/08 03:04:40;;;;;;;8.48;4.03;;;3.60;99.90;;;;;;5068377;28;20407;-67
2021/04/08 03:07:07;;;;;;;8.02;4.20;;;3.40;99.90;;;;;;5070556;28;20368;-67
2021/04/08 03:09:36;;;;;;;9.20;4.43;;;3.40;99.90;;;;;;5071336;28;20368;-67
2021/04/08 03:12:08;;;;;;;9.80;4.15;;;3.40;99.90;;;;;;5068045;28;20392;-67
2021/04/08 03:14:39;;;;;;;8.23;4.63;;;3.50;99.90;;;;;;5070162;28;20392;-67
2021/04/08 03:17:06;;;;;;;9.20;4.60;;;3.40;99.90;;;;;;5049611;28;20386;-65
2021/04/08 03:19:36;;;;;;;8.32;4.65;;;3.30;99.90;;;;;;5050970;28;20377;-67
2021/04/08 03:22:03;;;;;;;9.75;5.07;;;3.50;99.90;;;;;;5066484;28;20411;-67
2021/04/08 03:24:31;;;;;;;10.40;5.63;;;3.30;99.90;;;;;;5068949;28;20408;-67
2021/04/08 03:26:57;;;;;;;8.77;4.75;;;3.30;99.90;;;;;;5068941;28;20488;-67
2021/04/08 03:29:23;;;;;;;9.52;4.75;;;3.30;99.90;;;;;;5069011;28;20490;-67
2021/04/08 03:31:50;;;;;;;8.83;4.60;;;3.20;99.90;;;;;;5070004;28;20372;-67
2021/04/08 03:34:16;;;;;;;12.25;5.55;;;3.10;99.90;;;;;;5070391;28;20375;-67
2021/04/08 03:36:43;;;;;;;12.15;4.90;;;3.60;99.90;;;;;;5068149;28;20387;-60
2021/04/08 03:39:10;;;;;;;8.32;4.82;;;3.90;99.90;;;;;;5070159;28;20474;-67
2021/04/08 03:41:40;;;;;;;10.05;4.90;;;3.20;99.90;;;;;;5070206;28;20410;-66
2021/04/08 03:44:15;;;;;;;10.10;5.18;;;3.10;99.90;;;;;;5067751;28;20396;-66
2021/04/08 03:46:46;;;;;;;9.80;4.95;;;3.10;99.90;;;;;;5069294;28;20383;-67
2021/04/08 03:49:15;;;;;;;9.40;4.80;;;3.00;99.90;;;;;;5069226;28;20444;-67
2021/04/08 03:51:41;;;;;;;11.63;5.25;;;3.00;99.90;;;;;;5070207;28;20466;-67
2021/04/08 03:54:10;;;;;;;11.98;5.35;;;3.00;99.90;;;;;;5067238;28;20760;-67
2021/04/08 03:56:39;;;;;;;10.50;5.22;;;3.50;99.90;;;;;;5069226;28;20396;-66
2021/04/08 03:59:06;;;;;;;9.88;4.90;;;3.00;99.90;;;;;;5069277;28;20394;-67
2021/04/08 04:01:34;;;;;;;11.93;5.05;;;3.00;99.90;;;;;;5067550;28;20416;-67
2021/04/08 04:04:02;;;;;;;8.98;4.60;;;2.90;99.90;;;;;;5068731;28;20523;-66
2021/04/08 04:06:29;;;;;;;9.40;4.70;;;2.90;99.90;;;;;;5069160;28;20474;-66
2021/04/08 04:08:55;;;;;;;11.05;4.80;;;2.90;99.90;;;;;;5068723;28;20380;-65
2021/04/08 04:11:21;;;;;;;8.30;4.50;;;3.00;99.90;;;;;;5067762;28;20392;-66
2021/04/08 04:13:48;;;;;;;11.23;5.38;;;3.00;99.90;;;;;;5069355;28;20717;-66
2021/04/08 04:16:16;;;;;;;9.85;4.65;;;3.00;99.90;;;;;;5067966;28;20396;-66
2021/04/08 04:18:42;;;;;;;9.43;5.18;;;3.00;99.90;;;;;;5070129;28;20372;-63
2021/04/08 04:21:09;;;;;;;12.77;4.85;;;3.00;99.90;;;;;;5064273;28;20396;-66
2021/04/08 04:23:35;;;;;;;11.80;5.07;;;3.00;99.90;;;;;;5069285;28;20380;-66
2021/04/08 04:26:01;;;;;;;11.52;5.78;;;2.90;99.90;;;;;;5068222;28;20485;-65
2021/04/08 04:28:27;;;;;;;9.97;5.00;;;3.00;99.90;;;;;;5067657;28;20905;-66
2021/04/08 04:30:52;;;;;;;15.27;5.20;;;3.00;99.90;;;;;;5068364;28;20375;-66
2021/04/08 04:33:18;;;;;;;10.23;5.32;;;3.10;99.90;;;;;;5068852;28;20849;-66
2021/04/08 04:35:44;;;;;;;9.30;5.20;;;3.10;99.90;;;;;;5067588;28;20453;-59
2021/04/08 04:38:09;;;;;;;10.33;5.20;;;3.00;99.90;;;;;;5067425;28;20492;-64
2021/04/08 04:40:36;;;;;;;11.88;5.63;;;3.80;99.90;;;;;;5069240;28;20403;-66
2021/04/08 04:43:01;;;;;;;9.77;5.68;;;3.10;99.90;;;;;;5060733;28;20411;-66
2021/04/08 04:45:27;;;;;;;12.00;5.53;;;3.10;99.90;;;;;;5068949;28;20383;-67
2021/04/08 04:47:53;;;;;;;8.67;5.00;;;3.20;99.90;;;;;;5069032;28;20384;-65
2021/04/08 04:50:18;;;;;;;11.37;5.43;;;3.20;99.90;;;;;;5067769;28;20809;-66
2021/04/08 04:52:44;;;;;;;10.35;5.85;;;3.10;99.90;;;;;;5069357;28;20721;-60
2021/04/08 04:55:10;;;;;;;15.00;5.73;;;3.20;99.90;;;;;;5067152;28;20427;-65
2021/04/08 04:57:36;;;;;;;13.02;5.25;;;3.10;99.90;;;;;;5071052;28;20433;-67
2021/04/08 05:00:07;;;;;;;13.70;5.72;;;3.20;99.90;;;;;;5072602;28;20792;-67
2021/04/08 05:02:32;;;;;;;16.08;6.40;;;3.20;99.90;;;;;;5071708;28;20869;-66
2021/04/08 05:04:58;;;;;;;14.15;5.72;;;4.30;99.90;;;;;;5071075;28;20399;-65
2021/04/08 05:07:24;;;;;;;18.02;6.60;;;3.20;99.90;;;;;;5072751;28;20374;-67
2021/04/08 05:09:49;;;;;;;12.10;6.30;;;3.20;99.90;;;;;;5072384;28;20383;-66
2021/04/08 05:12:15;;;;;;;11.27;6.40;;;3.10;99.90;;;;;;5071280;28;20745;-65
2021/04/08 05:14:41;;;;;;;15.77;7.00;;;3.00;99.90;;;;;;5073035;28;20409;-66
2021/04/08 05:17:06;;;;;;;12.87;6.17;;;3.00;99.90;;;;;;5069249;28;21274;-67
2021/04/08 05:19:32;;;;;;;9.47;5.33;;;4.20;99.90;;;;;;5067002;28;20464;-67
2021/04/08 05:21:58;;;;;;;10.45;6.00;;;3.00;99.90;;;;;;5072154;28;20702;-67
2021/04/08 05:24:23;;;;;;;9.40;5.40;;;4.00;99.90;;;;;;5070920;28;20394;-64
2021/04/08 05:26:49;;;;;;;10.27;5.67;;;3.10;99.90;;;;;;5071956;28;20873;-67
2021/04/08 05:29:14;;;;;;;9.02;4.95;;;3.20;99.90;;;;;;5072052;28;20379;-67
2021/04/08 05:31:40;;;;;;;9.33;5.27;;;3.20;99.90;;;;;;5071734;28;20427;-67
2021/04/08 05:34:06;;;;;;;8.65;4.50;;;3.10;99.90;;;;;;5070165;28;20580;-67
2021/04/08 05:36:31;;;;;;;9.95;4.82;;;3.60;99.90;;;;;;5072662;28;20770;-67
2021/04/08 05:38:57;;;;;;;7.70;4.23;;;3.00;99.90;;;;;;5072239;28;20384;-68
2021/04/08 05:41:23;;;;;;;10.17;4.83;;;3.00;99.90;;;;;;5070535;28;20857;-68
2021/04/08 05:43:48;;;;;;;9.48;4.40;;;2.90;99.90;;;;;;5070247;28;20849;-65
2021/04/08 05:46:14;;;;;;;10.97;5.20;;;2.90;99.90;;;;;;5072374;28;20809;-68
2021/04/08 05:48:40;;;;;;;9.90;4.97;;;3.00;99.90;;;;;;5072557;28;20375;-67
2021/04/08 05:51:06;;;;;;;10.85;5.32;;;3.10;99.90;;;;;;5069553;28;20384;-67
2021/04/08 05:53:32;;;;;;;10.50;5.00;;;3.40;99.90;;;;;;5065715;28;20423;-67
2021/04/08 05:55:58;;;;;;;13.00;5.37;;;3.50;99.90;;;;;;5069714;28;20427;-67
2021/04/08 05:58:24;;;;;;;9.83;5.00;;;3.50;99.90;;;;;;5071754;28;20387;-67
2021/04/08 06:00:50;;;;;;;10.48;5.57;;;3.60;99.90;;;;;;5069558;28;20388;-66
2021/04/08 06:03:15;;;;;;;14.10;5.65;;;3.60;99.90;;;;;;5071422;28;20423;-66
2021/04/08 06:05:41;;;;;;;11.85;8.40;;;3.70;99.90;;;;;;5070964;28;20415;-67
2021/04/08 06:08:07;;;;;;;10.32;6.40;;;3.80;99.90;;;;;;5069441;28;20392;-65
2021/04/08 06:10:34;;;;;;;10.45;5.57;;;4.00;99.90;;;;;;5071315;28;20455;-65
2021/04/08 06:13:00;;;;;;;10.65;5.47;;;4.10;99.90;;;;;;5053289;28;20395;-63
2021/04/08 06:15:29;;;;;;;9.98;5.10;;;4.50;99.90;;;;;;5070312;28;20428;-65
2021/04/08 06:17:55;;;;;;;12.55;5.63;;;4.50;99.90;;;;;;5070148;28;20376;-66
2021/04/08 06:20:20;;;;;;;12.85;6.03;;;4.80;99.90;;;;;;5070631;28;20857;-66
2021/04/08 06:22:46;;;;;;;11.37;5.30;;;5.10;99.90;;;;;;5071186;28;20443;-60
2021/04/08 06:25:12;;;;;;;10.87;5.20;;;5.60;99.90;;;;;;5068612;28;20513;-65
2021/04/08 06:27:38;;;;;;;11.02;5.00;;;5.80;99.90;;;;;;5071460;28;20392;-67
2021/04/08 06:30:05;;;;;;;10.13;5.18;;;6.30;99.90;;;;;;5070972;28;20466;-68
2021/04/08 06:32:31;;;;;;;8.52;4.43;;;6.70;99.90;;;;;;5064096;28;20403;-67
2021/04/08 06:34:56;;;;;;;9.30;4.63;;;6.50;99.90;;;;;;5070568;28;20376;-67
2021/04/08 06:37:22;;;;;;;12.30;5.80;;;6.10;99.90;;;;;;5070521;28;20380;-67
2021/04/08 06:39:48;;;;;;;10.25;5.03;;;6.40;99.90;;;;;;5069031;28;20399;-60
2021/04/08 06:42:18;;;;;;;10.55;5.00;;;6.40;99.90;;;;;;5068909;28;20403;-65
2021/04/08 06:44:49;;;;;;;10.80;5.65;;;6.50;99.90;;;;;;5070256;28;20845;-64
2021/04/08 06:47:20;;;;;;;13.32;6.43;;;6.80;99.90;;;;;;5069858;28;20387;-68
2021/04/08 06:49:51;;;;;;;12.02;5.50;;;7.40;99.20;;;;;;5071067;28;20379;-68
2021/04/08 06:52:19;;;;;;;10.45;4.70;;;7.90;98.20;;;;;;5070875;28;20399;-69
2021/04/08 06:54:45;;;;;;;9.65;4.93;;;8.30;96.40;;;;;;5070511;28;20847;-68
2021/04/08 06:57:12;;;;;;;10.90;4.87;;;8.80;95.20;;;;;;5069891;28;20395;-66
2021/04/08 06:59:38;;;;;;;11.70;4.90;;;8.00;94.50;;;;;;5071190;28;20415;-68
2021/04/08 07:02:05;;;;;;;9.47;5.33;;;8.00;94.70;;;;;;5070069;28;20442;-70
2021/04/08 07:04:32;;;;;;;10.40;5.15;;;8.20;94.60;;;;;;5071350;28;20376;-68
2021/04/08 07:06:57;;;;;;;11.60;4.90;;;7.80;94.90;;;;;;5069655;28;20375;-67
2021/04/08 07:09:23;;;;;;;10.03;4.73;;;7.50;93.70;;;;;;5070810;28;20868;-67
2021/04/08 07:11:49;;;;;;;9.50;5.40;;;7.10;94.00;;;;;;5070250;28;20472;-60
2021/04/08 07:14:15;;;;;;;13.70;5.37;;;7.30;94.70;;;;;;5070953;28;20379;-68
2021/04/08 07:16:41;;;;;;;9.32;4.80;;;7.40;92.70;;;;;;5070760;28;20490;-68
2021/04/08 07:19:07;;;;;;;11.52;5.00;;;7.80;93.40;;;;;;5070106;28;20426;-71
2021/04/08 07:21:38;;;;;;;9.82;5.50;;;8.10;93.60;;;;;;5069475;28;20411;-70
2021/04/08 07:24:09;;;;;;;7.75;4.47;;;8.60;93.70;;;;;;5070152;28;20991;-71
2021/04/08 07:27:16;;;;;;;8.60;4.70;;;8.80;91.10;;;;;;5070079;28;20873;-69
2021/04/08 07:29:41;;;;;;;11.88;5.97;;;9.00;90.30;;;;;;4989167;28;20410;-69
2021/04/08 07:32:22;;;;;;;12.30;5.60;;;9.90;90.00;;;;;;5055970;28;20392;-69
2021/04/08 07:34:56;;;;;;;9.05;4.90;;;11.00;82.20;;;;;;5070084;28;20379;-60
2021/04/08 07:37:33;;;;;;;11.07;4.68;;;10.70;75.10;;;;;;5070545;28;20374;-70
2021/04/08 07:40:03;;;;;;;10.05;4.60;;;9.10;75.50;;;;;;5069597;28;20383;-68
2021/04/08 07:42:31;;;;;;;7.90;4.38;;;8.20;79.10;;;;;;5070380;28;20399;-64
2021/04/08 07:45:00;;;;;;;9.13;4.50;;;8.60;79.30;;;;;;5069423;28;20387;-68
2021/04/08 07:47:26;;;;;;;10.45;4.70;;;8.50;74.40;;;;;;5070153;28;20415;-70
2021/04/08 07:50:05;;;;;;;10.75;4.35;;;7.90;72.80;;;;;;5069541;28;20426;-68
2021/04/08 07:52:46;;;;;;;12.20;5.40;;;8.70;74.30;;;;;;5069800;28;20372;-62
2021/04/08 07:55:23;;;;;;;10.38;4.95;;;10.20;70.40;;;;;;5068544;28;20441;-69
2021/04/08 07:57:55;;;;;;;9.88;4.18;;;10.00;64.60;;;;;;5069617;28;20430;-61
2021/04/08 08:00:33;;;;;;;10.82;4.45;;;9.00;67.90;;;;;;5051881;28;20847;-68
2021/04/08 08:03:04;;;;;;;13.60;7.85;;;9.10;68.10;;;;;;5069260;28;20399;-69
2021/04/08 08:05:32;;;;;;;8.68;4.28;;;9.70;64.70;;;;;;5069486;28;20801;-69
2021/04/08 08:08:18;;;;;;;9.10;4.40;;;9.70;64.40;;;;;;5068711;28;20828;-69
2021/04/08 08:10:56;;;;;;;9.38;4.40;;;9.90;65.00;;;;;;5069787;28;20404;-70
2021/04/08 08:13:24;;;;;;;8.70;4.43;;;10.30;58.80;;;;;;5068752;28;20400;-70
2021/04/08 08:15:50;;;;;;;9.07;4.17;;;10.10;56.60;;;;;;5069618;28;20376;-62
2021/04/08 08:18:32;;;;;;;9.37;4.57;;;9.40;59.40;;;;;;5069758;28;20427;-68
2021/04/08 08:21:04;;;;;;;8.90;4.90;;;9.00;60.20;;;;;;5069054;28;20379;-66
2021/04/08 08:23:43;;;;;;;8.18;4.43;;;9.10;62.90;;;;;;5069789;28;20380;-68
2021/04/08 08:26:38;;;;;;;8.13;4.10;;;8.60;62.90;;;;;;5068626;28;20405;-68
2021/04/08 08:29:06;;;;;;;12.80;4.90;;;7.90;65.60;;;;;;5068795;28;20887;-65
2021/04/08 08:31:36;;;;;;;10.18;5.00;;;7.30;65.30;;;;;;5069111;28;20409;-65
2021/04/08 08:34:06;;;;;;;11.38;5.55;;;7.00;69.70;;;;;;5068822;28;20381;-67
2021/04/08 08:36:33;;;;;;;11.18;5.70;;;7.10;73.70;;;;;;5069658;28;20372;-67
2021/04/08 08:39:06;;;;;;;10.98;4.70;;;7.20;74.40;;;;;;5068869;28;20368;-67
2021/04/08 08:41:34;;;;;;;10.57;4.47;;;6.90;69.90;;;;;;5069265;28;20421;-64
2021/04/08 08:44:01;;;;;;;9.65;5.30;;;6.60;71.90;;;;;;5050637;28;20775;-63
2021/04/08 08:46:27;;;;;;;10.75;5.90;;;6.50;76.60;;;;;;5069650;28;20371;-64
2021/04/08 08:48:54;;;;;;;11.25;6.15;;;6.10;79.70;;;;;;5068519;28;20384;-64
2021/04/08 08:51:22;;;;;;;13.18;5.82;;;6.10;81.30;;;;;;5069406;28;20398;-67
2021/04/08 08:53:49;;;;;;;11.87;6.63;;;6.10;83.70;;;;;;5069347;28;20375;-65
2021/04/08 08:56:15;;;;;;;11.98;6.20;;;5.90;88.10;;;;;;5066805;28;20427;-65
2021/04/08 08:58:41;;;;;;;12.18;6.53;;;6.30;88.60;;;;;;5068907;28;20856;-64
2021/04/08 09:01:07;;;;;;;11.27;6.10;;;6.90;89.20;;;;;;5068297;28;20429;-63
2021/04/08 09:03:33;;;;;;;12.70;6.90;;;7.80;85.70;;;;;;5067414;28;20874;-67
2021/04/08 09:06:05;;;;;;;11.00;6.65;;;8.40;83.90;;;;;;5068857;28;20939;-67
2021/04/08 09:08:32;;;;;;;9.45;5.90;;;8.50;83.30;;;;;;5067745;28;20427;-67
2021/04/08 09:10:58;;;;;;;13.05;6.68;;;8.30;81.80;;;;;;5068634;28;20372;-67
2021/04/08 09:13:24;;;;;;;10.80;5.90;;;8.30;80.90;;;;;;5067339;28;20395;-67
2021/04/08 09:15:50;;;;;;;10.13;6.20;;;8.10;82.60;;;;;;5069059;28;20769;-61
2021/04/08 09:18:22;;;;;;;10.90;6.28;;;7.90;83.20;;;;;;5050686;28;20541;-67
2021/04/08 09:20:48;;;;;;;10.18;5.32;;;7.60;86.20;;;;;;5067237;28;20383;-67
2021/04/08 09:23:18;;;;;;;10.20;5.60;;;7.20;86.80;;;;;;5066914;28;20408;-64
2021/04/08 09:25:46;;;;;;;9.82;5.63;;;6.60;90.80;;;;;;5067851;28;20403;-64
2021/04/08 09:28:14;;;;;;;9.13;5.47;;;8.60;92.00;;;;;;5065820;28;20412;-65
2021/04/08 09:30:44;;;;;;;9.65;5.03;;;6.70;91.80;;;;;;5069217;28;20375;-67
2021/04/08 09:33:11;;;;;;;10.40;5.80;;;6.60;90.00;;;;;;5066326;28;20403;-65
2021/04/08 09:35:38;;;;;;;12.57;5.70;;;6.50;90.10;;;;;;5068546;28;20376;-64
2021/04/08 09:38:03;;;;;;;9.60;5.45;;;6.70;91.70;;;;;;5068290;28;20386;-67
2021/04/08 09:40:34;;;;;;;10.33;5.57;;;6.70;91.60;;;;;;5066702;28;20391;-66
2021/04/08 09:43:00;;;;;;;12.70;5.25;;;6.60;90.80;;;;;;5066617;28;20500;-66
2021/04/08 09:45:27;;;;;;;10.15;5.05;;;5.90;91.00;;;;;;5072314;28;20379;-67
2021/04/08 09:48:11;;;;;;;10.27;5.32;;;7.00;93.20;;;;;;5070392;28;20442;-61
2021/04/08 09:50:53;;;;;;;10.98;5.50;;;10.10;85.30;;;;;;5071176;28;20388;-68
2021/04/08 09:53:21;;;;;;;10.88;6.60;;;12.70;72.80;;;;;;5071109;28;20395;-69
2021/04/08 09:56:01;;;;;;;12.02;6.32;;;14.90;58.10;;;;;;5072299;28;20415;-69
2021/04/08 09:58:28;;;;;;;10.53;6.60;;;14.70;53.00;;;;;;5070609;28;20482;-68
2021/04/08 10:00:56;;;;;;;10.82;6.30;;;15.50;50.30;;;;;;5071690;28;20423;-59
2021/04/08 10:03:39;;;;;;;11.55;6.60;;;13.50;50.30;;;;;;5071803;28;20407;-66
2021/04/08 10:06:22;;;;;;;11.45;6.40;;;12.00;53.10;;;;;;5069270;28;20399;-68
2021/04/08 10:08:51;;;;;;;10.20;6.30;;;11.20;54.60;;;;;;5072574;28;20967;-66
2021/04/08 10:11:31;;;;;;;9.55;6.75;;;10.60;56.40;;;;;;5070640;28;20384;-67
2021/04/08 10:13:57;;;;;;;11.43;6.20;;;10.10;58.70;;;;;;5070952;28;20440;-67
2021/04/08 10:16:23;;;;;;;16.00;6.68;;;9.50;59.80;;;;;;5071990;28;20371;-67
2021/04/08 10:18:59;;;;;;;10.77;6.55;;;9.50;62.40;;;;;;5054338;28;20395;-66
2021/04/08 10:21:24;;;;;;;12.48;6.13;;;9.50;62.50;;;;;;5072444;28;20442;-67
2021/04/08 10:23:52;;;;;;;10.93;6.13;;;9.10;64.20;;;;;;5071328;28;20857;-68
2021/04/08 10:26:29;;;;;;;14.43;6.20;;;9.50;64.10;;;;;;5071590;28;20494;-70
2021/04/08 10:28:57;;;;;;;12.75;6.68;;;9.80;64.20;;;;;;5071072;28;20387;-65
2021/04/08 10:31:32;;;;;;;12.30;6.50;;;10.10;61.60;;;;;;5071720;28;20371;-66
2021/04/08 10:34:05;;;;;;;11.60;6.40;;;10.90;61.50;;;;;;5071046;28;20374;-65
2021/04/08 10:37:00;;;;;;;12.43;6.30;;;10.40;59.30;;;;;;5071841;28;20410;-68
2021/04/08 10:39:29;;;;;;;12.20;6.80;;;9.80;61.10;;;;;;5054262;28;20387;-69
2021/04/08 10:41:57;;;;;;;10.63;6.38;;;10.00;62.50;;;;;;5071094;28;20438;-61
2021/04/08 10:44:25;;;;;;;11.00;6.18;;;10.40;62.00;;;;;;5071634;28;20432;-68
2021/04/08 10:46:52;;;;;;;9.82;6.20;;;10.70;60.80;;;;;;5071552;28;20464;-65
2021/04/08 10:49:25;;;;;;;13.73;6.82;;;11.20;60.20;;;;;;5070672;28;20833;-64
2021/04/08 10:51:52;;;;;;;12.20;6.85;;;11.30;57.80;;;;;;5071539;28;20380;-66
2021/04/08 10:54:18;;;;;;;11.77;6.50;;;11.20;57.50;;;;;;5070217;28;20457;-65
2021/04/08 10:56:49;;;;;;;12.40;6.40;;;11.50;57.70;;;;;;5070604;28;20837;-66
2021/04/08 10:59:16;;;;;;;10.73;6.50;;;11.70;57.00;;;;;;5070026;28;20846;-70
2021/04/08 11:01:42;;;;;;;11.13;6.40;;;10.50;57.30;;;;;;5071133;28;20399;-67
2021/04/08 11:04:08;;;;;;;11.23;6.20;;;10.40;59.00;;;;;;5070357;28;20390;-67
2021/04/08 11:06:33;;;;;;;12.27;6.70;;;9.60;59.50;;;;;;5071375;28;20419;-68
2021/04/08 11:08:59;;;;;;;11.45;6.35;;;9.00;61.10;;;;;;5070403;28;20442;-68
2021/04/08 11:11:25;;;;;;;12.30;6.80;;;8.90;64.40;;;;;;5071489;28;20706;-68
2021/04/08 11:13:51;;;;;;;10.68;6.20;;;9.40;64.50;;;;;;5071204;28;20368;-68
2021/04/08 11:16:17;;;;;;;11.13;6.70;;;9.50;63.50;;;;;;5069961;28;20387;-69
2021/04/08 11:18:44;;;;;;;11.90;6.50;;;9.10;63.40;;;;;;5071353;28;20403;-67
2021/04/08 11:21:10;;;;;;;14.15;6.38;;;8.90;63.70;;;;;;5070054;28;20384;-68
2021/04/08 11:23:36;;;;;;;11.02;6.80;;;9.20;64.60;;;;;;5071036;28;20449;-68
2021/04/08 11:26:03;;;;;;;12.98;6.90;;;9.60;62.90;;;;;;5069642;28;20388;-68
2021/04/08 11:28:29;;;;;;;12.57;6.55;;;9.90;62.80;;;;;;5070726;28;20412;-68
2021/04/08 11:30:54;;;;;;;15.18;6.95;;;10.30;59.80;;;;;;5070246;28;20396;-63
2021/04/08 11:33:23;;;;;;;11.33;6.50;;;10.30;59.80;;;;;;5070372;28;20407;-69
2021/04/08 11:35:49;;;;;;;12.57;6.80;;;10.10;61.10;;;;;;5070831;28;20383;-68
2021/04/08 11:38:22;;;;;;;11.97;6.57;;;9.70;60.40;;;;;;5069713;28;20384;-68
2021/04/08 11:40:52;;;;;;;12.90;7.20;;;9.50;60.80;;;;;;5070463;28;20690;-69
2021/04/08 11:43:26;;;;;;;14.90;7.68;;;9.60;63.90;;;;;;5069189;28;20772;-68
2021/04/08 11:45:54;;;;;;;12.97;7.27;;;10.00;60.50;;;;;;5070392;28;20849;-68
2021/04/08 11:48:22;;;;;;;12.50;7.07;;;10.30;59.60;;;;;;5069618;28;20380;-68
2021/04/08 11:50:49;;;;;;;15.30;7.13;;;10.30;58.80;;;;;;5070186;28;20423;-68
2021/04/08 11:53:31;;;;;;;12.48;6.50;;;10.40;59.40;;;;;;5069428;28;20390;-70
2021/04/08 11:55:56;;;;;;;11.90;6.75;;;10.50;58.50;;;;;;5051682;28;20403;-62
2021/04/08 11:58:33;;;;;;;10.82;6.30;;;9.50;60.50;;;;;;5070081;28;20443;-68
2021/04/08 12:01:13;;;;;;;10.23;5.97;;;9.60;62.30;;;;;;5069216;28;20667;-67
2021/04/08 12:03:40;;;;;;;14.23;6.15;;;9.80;61.20;;;;;;5051523;28;20431;-67
2021/04/08 12:06:14;;;;;;;14.63;6.53;;;9.50;62.30;;;;;;5068963;28;20376;-68
2021/04/08 12:08:45;;;;;;;13.20;6.73;;;10.10;60.20;;;;;;5069645;28;20404;-73
2021/04/08 12:11:12;;;;;;;9.18;6.05;;;9.90;59.20;;;;;;5069207;28;20441;-67
2021/04/08 12:13:38;;;;;;;11.67;6.50;;;10.20;59.30;;;;;;5067343;28;20379;-62
2021/04/08 12:16:06;;;;;;;11.00;6.43;;;10.50;59.70;;;;;;5064542;28;20388;-62
2021/04/08 12:18:32;;;;;;;10.75;6.20;;;10.60;59.00;;;;;;5064844;28;20910;-62
2021/04/08 12:21:08;;;;;;;12.30;6.95;;;10.20;57.60;;;;;;5065770;28;20387;-59
2021/04/08 12:23:36;;;;;;;13.52;6.30;;;9.90;60.60;;;;;;5065468;28;20868;-62
2021/04/08 12:26:03;;;;;;;10.73;6.10;;;10.20;60.00;;;;;;5050612;28;20517;-62
2021/04/08 12:28:28;;;;;;;11.35;5.85;;;10.30;58.60;;;;;;5070052;28;20415;-62
2021/04/08 12:31:01;;;;;;;8.80;5.30;;;10.60;59.10;;;;;;5067126;28;20387;-59
2021/04/08 12:33:41;;;;;;;11.70;6.07;;;10.90;59.80;;;;;;5067468;28;20404;-62
2021/04/08 12:36:10;;;;;;;11.40;6.00;;;9.60;57.10;;;;;;5065569;28;20382;-62
2021/04/08 12:38:36;;;;;;;10.20;5.70;;;10.20;59.30;;;;;;5057402;28;20394;-62
2021/04/08 12:41:03;;;;;;;11.52;5.50;;;10.70;58.50;;;;;;5065801;28;20387;-62
2021/04/08 12:43:29;;;;;;;13.05;6.38;;;10.60;56.70;;;;;;5069596;28;20411;-60
2021/04/08 12:45:55;;;;;;;10.38;5.53;;;10.80;58.50;;;;;;5067650;28;20865;-56
2021/04/08 12:48:21;;;;;;;9.63;5.22;;;11.20;58.20;;;;;;5068562;28;20384;-63
2021/04/08 12:50:48;;;;;;;13.20;5.50;;;11.60;57.60;;;;;;5065302;28;20431;-62
2021/04/08 12:53:14;;;;;;;13.95;5.75;;;11.90;55.60;;;;;;5064053;28;20391;-60
2021/04/08 12:55:41;;;;;;;11.98;6.00;;;12.00;54.70;;;;;;5062999;28;20395;-62